Terminal Aerodrome Forecast
Issued by NWS

Home | Current Version | Previous Version | Text Only | Print | Product List | Glossary On
Versions: 1 2 3 4 5 6 7 8 9 10 11 12 13 14 15 16 17 18
692
FTUS44 KLZK 292013 AAA
TAFHRO
TAF AMD
KHRO 292013Z 2920/3018 VRB05KT P6SM VCTS SCT020 BKN035CB BKN080
      TEMPO 2920/2922 6SM -SHRA BKN030
     FM292200 28005KT P6SM SCT040 SCT100 BKN250
     FM300800 VRB03KT 5SM BR FEW050 BKN100
     FM301500 25004KT P6SM VCSH SCT040 BKN080=

USA.gov is the U.S. government's official web portal to all federal, state and local government web resources and services.